• Join FlightAware (Why Join?)
  • Login
  • US Flag 
12:22AM EDT


 

Airport Tracker/Info


-or-


 

Live Flight TrackerFlight Track Log ✈ N5FG ✈ 21-Jun-2013 ✈ KUGN - KHYR

Flight Track Log - Related Links

Times and Time Zones

All times are in EDT time to prevent confusion due to time zone crossing. See the N5FG flight status page for this flight to view local times or setup timezone preferences in your user account.

Time Position Orientation Groundspeed Altitude Reporting Facility
EDT Latitude Longitude Course Direction KTS MPH feet Rate Location/Type
05:27PM 42.4000 -87.8833 124° Southeast 112 129 1,700  Level Chicago TRACON
05:28PM 42.3833 -87.8500 124° Southeast 133 153 2,600 720 Climbing Chicago TRACON
05:30PM 42.4383 -87.8103 28° Northeast 163 188 3,600 660 Climbing Chicago Center
05:31PM 42.4819 -87.8067 North 158 182 4,300 660 Climbing Chicago Center
05:32PM 42.5231 -87.7981 North 152 175 5,000 540 Climbing Chicago Center
05:33PM 42.5650 -87.7883 10° North 152 175 5,500 480 Climbing Chicago Center
05:34PM 42.6083 -87.7792 North 156 180 6,000 240 Climbing Chicago Center
05:35PM 42.6575 -87.7764 North 154 177 6,000  Level Chicago Center
05:36PM 42.7006 -87.7692 North 157 181 6,000  Level Chicago Center
05:37PM 42.7456 -87.7656 North 162 186 6,000  Level Chicago Center
05:38PM 42.7775 -87.8000 322° Northwest 150 173 6,000  Level Chicago Center
05:39PM 42.7908 -87.8622 286° West 144 166 6,000  Level Chicago Center
05:40PM 42.8047 -87.9128 291° West 143 165 6,000  Level Chicago Center
05:41PM 42.8239 -87.9622 298° West 146 168 6,000  Level Chicago Center
05:42PM 42.8436 -88.0086 300° West 143 165 6,000  Level Chicago Center
05:43PM 42.8614 -88.0564 297° West 142 163 6,000  Level Chicago Center
05:44PM 42.8817 -88.1103 297° West 139 160 6,000 360 Level Chicago Center
05:45PM 42.9158 -88.1325 335° Northwest 134 154 6,800 600 Climbing Chicago Center
05:46PM 42.9458 -88.1528 334° Northwest 123 142 7,300 360 Climbing Chicago Center
05:47PM 42.9761 -88.1789 328° Northwest 128 147 7,600 300 Climbing Chicago Center
05:48PM 43.0108 -88.2039 332° Northwest 140 161 8,000 180 Climbing Chicago Center
05:49PM 43.0539 -88.2347 332° Northwest 151 174 8,000  Level Chicago Center
05:50PM 43.0925 -88.2631 332° Northwest 158 182 8,000  Level Chicago Center
05:51PM 43.1331 -88.2903 334° Northwest 162 186 8,000  Level Chicago Center
05:52PM 43.1728 -88.3194 332° Northwest 162 186 8,000  Level Chicago Center
05:53PM 43.2189 -88.3525 332° Northwest 161 185 8,000  Level Chicago Center
05:54PM 43.2581 -88.3803 333° Northwest 160 184 8,000  Level Chicago Center
05:55PM 43.2958 -88.4089 331° Northwest 156 180 8,000  Level Chicago Center
05:57PM 43.3356 -88.4367 333° Northwest 159 183 8,000  Level Chicago Center
05:58PM 43.3744 -88.4656 332° Northwest 159 183 8,000  Level Chicago Center
05:59PM 43.4206 -88.4997 332° Northwest 159 183 8,100  Climbing Chicago Center
06:00PM 43.4633 -88.5317 332° Northwest 163 188 8,000 -60 Descending Chicago Center
06:01PM 43.5033 -88.5592 333° Northwest 162 186 8,000  Level Chicago Center
06:02PM 43.5422 -88.5881 332° Northwest 160 184 8,100  Climbing Chicago Center
06:03PM 43.5817 -88.6169 332° Northwest 160 184 8,100  Level Chicago Center
06:04PM 43.6211 -88.6461 332° Northwest 161 185 8,200 -60 Climbing Chicago Center
06:05PM 43.6667 -88.6800 332° Northwest 161 185 8,000 -120 Descending Chicago Center
06:06PM 43.7053 -88.7086 332° Northwest 159 183 8,000  Level Chicago Center
06:07PM 43.7436 -88.7375 331° Northwest 158 182 8,100  Climbing Chicago Center
06:08PM 43.7831 -88.7661 332° Northwest 159 183 8,000 -60 Descending Chicago Center
06:09PM 43.8217 -88.7950 332° Northwest 159 183 8,000  Level Chicago Center
06:10PM 43.8669 -88.8292 331° Northwest 159 183 8,100  Climbing Chicago Center
06:11PM 43.9058 -88.8583 332° Northwest 159 183 8,100 -60 Level Chicago Center
06:12PM 43.9319 -88.8769 333° Northwest 160 184 8,000 -60 Descending Minneapolis Center
06:13PM 43.9783 -88.9122 331° Northwest 161 185 8,000  Level Minneapolis Center
06:14PM 44.0175 -88.9408 332° Northwest 161 185 8,100  Climbing Minneapolis Center
06:15PM 44.0572 -88.9711 331° Northwest 162 186 8,100  Level Minneapolis Center
06:16PM 44.0978 -89.0006 332° Northwest 163 188 8,100  Level Minneapolis Center
06:17PM 44.1372 -89.0292 333° Northwest 163 188 8,100 -60 Level Minneapolis Center
06:18PM 44.1817 -89.0650 330° Northwest 159 183 8,000  Descending Minneapolis Center
06:19PM 44.2225 -89.0936 333° Northwest 163 188 8,100  Climbing Minneapolis Center
06:20PM 44.2736 -89.1317 332° Northwest 163 188 8,100  Level Minneapolis Center
06:21PM 44.3156 -89.1642 331° Northwest 165 190 8,100 -60 Level Minneapolis Center
06:22PM 44.3564 -89.1933 333° Northwest 160 184 8,000  Descending Minneapolis Center
06:23PM 44.3989 -89.2253 332° Northwest 165 190 8,100  Climbing Minneapolis Center
06:24PM 44.4369 -89.2547 331° Northwest 164 189 8,100 -60 Level Minneapolis Center
06:25PM 44.4794 -89.2864 332° Northwest 165 190 8,000  Descending Minneapolis Center
06:26PM 44.5208 -89.3178 332° Northwest 162 186 8,100  Climbing Minneapolis Center
06:29PM 44.6033 -89.3814 331° Northwest 164 189 8,000 -60 Descending Minneapolis Center
06:30PM 44.6447 -89.4128 332° Northwest 162 186 8,000  Level Minneapolis Center
06:31PM 44.6875 -89.4450 332° Northwest 165 190 8,100  Climbing Minneapolis Center
06:32PM 44.7286 -89.4772 331° Northwest 164 189 8,000 -60 Descending Minneapolis Center
06:33PM 44.7667 -89.5067 331° Northwest 163 188 8,000  Level Minneapolis Center
06:34PM 44.8089 -89.5381 332° Northwest 164 189 8,100  Climbing Minneapolis Center
06:35PM 44.8514 -89.5697 332° Northwest 166 191 8,100  Level Minneapolis Center
06:36PM 44.8936 -89.6017 332° Northwest 164 189 8,100 -60 Level Minneapolis Center
06:37PM 44.9342 -89.6342 330° Northwest 162 186 8,000 -60 Descending Minneapolis Center
06:38PM 44.9753 -89.6656 332° Northwest 162 186 8,000  Level Minneapolis Center
06:39PM 45.0161 -89.6983 330° Northwest 161 185 8,000  Level Minneapolis Center
06:40PM 45.0575 -89.7311 331° Northwest 161 185 8,000  Level Minneapolis Center
06:41PM 45.0908 -89.7550 333° Northwest 159 183 8,000  Level Minneapolis Center
06:42PM 45.1372 -89.7914 331° Northwest 160 184 8,100  Climbing Minneapolis Center
06:43PM 45.1769 -89.8217 332° Northwest 161 185 8,100 -60 Level Minneapolis Center
06:44PM 45.2150 -89.8528 330° Northwest 159 183 8,000  Descending Minneapolis Center
06:45PM 45.2547 -89.8819 333° Northwest 160 184 8,100  Climbing Minneapolis Center
06:46PM 45.2878 -89.9228 319° Northwest 160 184 8,100  Level Minneapolis Center
06:47PM 45.3114 -89.9744 303° West 158 182 8,100 -60 Level Minneapolis Center
06:48PM 45.3258 -90.0486 286° West 163 188 8,000  Descending Minneapolis Center
06:49PM 45.3267 -90.1133 271° West 164 189 8,100  Climbing Minneapolis Center
06:50PM 45.3275 -90.1783 271° West 164 189 8,000  Descending Minneapolis Center
06:51PM 45.3289 -90.2425 272° West 164 189 8,100  Climbing Minneapolis Center
06:52PM 45.3383 -90.3056 282° West 162 186 8,000  Descending Minneapolis Center
06:53PM 45.3506 -90.3661 286° West 161 185 8,100  Climbing Minneapolis Center
06:54PM 45.3800 -90.4256 305° West 157 181 8,100 -60 Level Minneapolis Center
06:55PM 45.4033 -90.4814 301° West 158 182 8,000 -60 Descending Minneapolis Center
06:56PM 45.4269 -90.5375 301° West 162 186 8,000  Level Minneapolis Center
06:58PM 45.4497 -90.5919 301° West 161 185 8,000  Level Minneapolis Center
06:59PM 45.4733 -90.6472 301° West 162 186 8,000  Level Minneapolis Center
07:00PM 45.4958 -90.7022 300° West 161 185 8,000  Level Minneapolis Center
07:01PM 45.5233 -90.7700 300° West 163 188 8,000 -120 Level Minneapolis Center
07:02PM 45.5467 -90.8269 300° West 165 190 7,800 -480 Descending Minneapolis Center
07:03PM 45.5719 -90.8914 299° West 176 203 7,000 -780 Descending Minneapolis Center
07:04PM 45.6003 -90.9564 302° West 183 211 6,200 -780 Descending Minneapolis Center
07:05PM 45.6289 -91.0222 302° West 189 217 5,500 -600 Descending Minneapolis Center
07:06PM 45.6550 -91.0886 299° West 192 221 5,000 -300 Descending Minneapolis Center
07:07PM 45.6797 -91.1506 300° West 188 216 5,000  Level Minneapolis Center
07:08PM 45.7092 -91.2197 301° West 179 206 5,000 -60 Level Minneapolis Center
07:09PM 45.7319 -91.2767 300° West 178 205 4,900 -120 Descending Minneapolis Center
07:11PM 45.7664 -91.3604 301° West  Level FlightAware Approximate
07:18PM 45.9661 -91.4656 24° Northeast  Level FlightAware Approximate
07:19PM 46.0045 -91.4411 24° Northeast  Level FlightAware Approximate
07:20PM 46.0167 -91.4333 North  Level FlightAware Approximate
07:21PM 46.0253 -91.4443 North  Level Estimated
07:22PM 46.0253 -91.4443 North  Level Estimated
07:23PM 46.0253 -91.4443 North  Level Estimated